TAF KMIA
KMIA 270521Z 2706/2812 VRB03KT P6SM FEW035 FM271500 33006KT P6SM SCT035 FM271900 05008KT P6SM FEW030 SCT050 33006KT P6SM SCT035 FM271900 05008KT P6SM FEW030 SCT050 FM280100 VRB03KT P6SM FEW035=
METAR KMIA
KMIA 261953Z 28007KT 10SM FEW040 FEW200 26/14 A2998 RMK AO2 SLP152 T02610139 ?
KMIA 261853Z 31008KT 260V350 10SM FEW030 26/15 A3000 RMK AO2 SLP158 T02610150 ?
KMIA 261753Z 33007KT 10SM FEW026 26/14 A3002 RMK AO2 SLP164 T02610144 10261 20189 58026 ?
KMIA 261653Z VRB06KT 10SM CLR 26/14 A3004 RMK AO2 SLP173 T02560139 ?
KMIA 261553Z 32008KT 290V350 10SM FEW025 25/16 A3008 RMK AO2 SLP186 T02500156 ?
WC KMIA
WS KMIA
WV KMIA